Time;durP1;ratioP1;P1;durP2;ratioP2;P2;SDS_P1;SDS_P2;PMS_P1;PMS_P2;Temp;Humidity;BMP_temperature;BMP_pressure;BME280_temperature;BME280_humidity;BME280_pressure;Samples;Min_cycle;Max_cycle;Signal;HPM_P1;HPM_P2
2024/01/23 00:00:24;;;;;;;0.40;0.40;;;;;;;;;;5099090;27;20441;-88
2024/01/23 00:02:50;;;;;;;0.40;0.40;;;;;;;;;;5099404;27;20035;-88
2024/01/23 00:05:16;;;;;;;0.50;0.50;;;;;;;;;;5099063;27;20042;-88
2024/01/23 00:07:41;;;;;;;0.40;0.40;;;;;;;;;;5099523;27;20372;-88
2024/01/23 00:10:08;;;;;;;0.50;0.50;;;;;;;;;;5116075;27;20057;-87
2024/01/23 00:12:34;;;;;;;0.40;0.40;;;;;;;;;;5116631;27;20484;-87
2024/01/23 00:15:00;;;;;;;0.50;0.50;;;;;;;;;;5116087;27;20039;-87
2024/01/23 00:17:26;;;;;;;0.50;0.50;;;;;;;;;;5098963;27;20047;-88
2024/01/23 00:19:52;;;;;;;0.35;0.35;;;;;;;;;;5098960;28;20043;-88
2024/01/23 00:22:18;;;;;;;0.40;0.40;;;;;;;;;;5099020;27;20146;-88
2024/01/23 00:24:44;;;;;;;0.40;0.40;;;;;;;;;;5098347;27;20059;-88
2024/01/23 00:27:10;;;;;;;0.40;0.40;;;;;;;;;;5104020;27;20059;-88
2024/01/23 00:29:36;;;;;;;0.50;0.50;;;;;;;;;;5118510;28;20088;-88
2024/01/23 00:32:02;;;;;;;0.50;0.50;;;;;;;;;;5100153;27;20114;-88
2024/01/23 00:34:28;;;;;;;0.40;0.40;;;;;;;;;;5124302;27;20043;-88
2024/01/23 00:36:54;;;;;;;0.50;0.50;;;;;;;;;;5114089;28;20077;-88
2024/01/23 00:39:22;;;;;;;0.40;0.40;;;;;;;;;;5109261;28;20430;-88
2024/01/23 00:41:48;;;;;;;0.40;0.40;;;;;;;;;;5087998;28;20089;-88
2024/01/23 00:44:14;;;;;;;0.50;0.50;;;;;;;;;;5104288;28;20043;-88
2024/01/23 00:46:40;;;;;;;0.50;0.50;;;;;;;;;;5098984;27;20059;-88
2024/01/23 00:49:06;;;;;;;0.40;0.40;;;;;;;;;;5119623;27;20042;-87
2024/01/23 00:51:32;;;;;;;0.50;0.50;;;;;;;;;;5123930;27;20088;-88
2024/01/23 00:54:00;;;;;;;0.40;0.40;;;;;;;;;;5105391;27;20046;-87
2024/01/23 00:56:26;;;;;;;0.40;0.40;;;;;;;;;;5103166;27;20534;-88
2024/01/23 00:58:52;;;;;;;0.40;0.40;;;;;;;;;;5117820;27;20406;-87
2024/01/23 01:01:18;;;;;;;0.47;0.47;;;;;;;;;;5119737;27;20046;-88
2024/01/23 01:03:44;;;;;;;0.40;0.40;;;;;;;;;;5119725;27;20429;-88
2024/01/23 01:06:10;;;;;;;0.47;0.47;;;;;;;;;;5119758;27;20118;-88
2024/01/23 01:08:36;;;;;;;0.50;0.50;;;;;;;;;;5119748;27;20635;-87
2024/01/23 01:11:02;;;;;;;0.40;0.40;;;;;;;;;;5119867;27;20437;-88
2024/01/23 01:13:28;;;;;;;0.50;0.50;;;;;;;;;;5119731;27;20070;-88
2024/01/23 01:15:54;;;;;;;0.40;0.40;;;;;;;;;;5119856;27;20038;-87
2024/01/23 01:18:20;;;;;;;0.40;0.40;;;;;;;;;;5119279;27;20039;-88
2024/01/23 01:20:48;;;;;;;0.50;0.50;;;;;;;;;;5119388;27;20035;-88
2024/01/23 01:23:15;;;;;;;0.40;0.40;;;;;;;;;;5119189;27;20031;-88
2024/01/23 01:25:44;;;;;;;0.40;0.40;;;;;;;;;;5119473;27;20063;-88
2024/01/23 01:28:10;;;;;;;0.40;0.40;;;;;;;;;;5119442;27;20435;-87
2024/01/23 01:30:36;;;;;;;0.50;0.50;;;;;;;;;;5136756;27;20133;-88
2024/01/23 01:33:02;;;;;;;0.40;0.40;;;;;;;;;;5119010;27;20074;-87
2024/01/23 01:35:28;;;;;;;0.50;0.50;;;;;;;;;;5119403;27;20072;-88
2024/01/23 01:37:54;;;;;;;0.45;0.45;;;;;;;;;;5119288;27;20043;-88
2024/01/23 01:43:25;;;;;;;0.40;0.40;;;;;;;;;;5136050;27;20043;-88
2024/01/23 01:46:10;;;;;;;0.40;0.40;;;;;;;;;;5119330;27;20035;-87
2024/01/23 01:48:36;;;;;;;0.40;0.40;;;;;;;;;;5119096;27;20045;-88
2024/01/23 01:51:02;;;;;;;0.40;0.40;;;;;;;;;;5118731;27;20130;-87
2024/01/23 01:53:28;;;;;;;0.50;0.50;;;;;;;;;;5118562;27;20050;-87
2024/01/23 01:55:54;;;;;;;0.50;0.50;;;;;;;;;;5118856;27;20395;-88
2024/01/23 01:58:22;;;;;;;0.50;0.50;;;;;;;;;;5118515;27;20070;-88
2024/01/23 02:00:49;;;;;;;0.40;0.40;;;;;;;;;;5118014;27;20125;-87
2024/01/23 02:03:17;;;;;;;0.40;0.40;;;;;;;;;;5135712;27;20046;-88
2024/01/23 02:05:43;;;;;;;0.50;0.50;;;;;;;;;;5118888;27;20035;-88
2024/01/23 02:08:09;;;;;;;0.50;0.50;;;;;;;;;;5118800;27;20597;-88
2024/01/23 02:10:35;;;;;;;0.50;0.50;;;;;;;;;;5135824;27;20072;-88
2024/01/23 02:13:01;;;;;;;0.50;0.50;;;;;;;;;;5118530;27;20096;-88
2024/01/23 02:15:27;;;;;;;0.50;0.50;;;;;;;;;;5118457;27;20035;-88
2024/01/23 02:17:54;;;;;;;0.50;0.50;;;;;;;;;;5118523;27;20411;-88
2024/01/23 02:20:20;;;;;;;0.50;0.50;;;;;;;;;;5118293;27;20084;-88
2024/01/23 02:22:46;;;;;;;0.50;0.50;;;;;;;;;;5118349;27;20035;-88
2024/01/23 02:25:14;;;;;;;0.40;0.40;;;;;;;;;;5118640;27;20034;-88
2024/01/23 02:27:39;;;;;;;0.50;0.50;;;;;;;;;;5135162;27;20039;-88
2024/01/23 02:30:06;;;;;;;0.50;0.50;;;;;;;;;;5127043;27;20035;-88
2024/01/23 02:32:32;;;;;;;0.50;0.50;;;;;;;;;;5134857;27;20039;-87
2024/01/23 02:34:58;;;;;;;0.50;0.50;;;;;;;;;;5135560;27;20138;-88
2024/01/23 02:37:24;;;;;;;0.50;0.50;;;;;;;;;;5117860;27;20039;-88
2024/01/23 02:39:50;;;;;;;0.50;0.50;;;;;;;;;;5105968;27;20039;-88
2024/01/23 02:42:16;;;;;;;0.50;0.50;;;;;;;;;;5100970;27;20074;-88
2024/01/23 02:44:45;;;;;;;0.47;0.47;;;;;;;;;;5101072;27;20058;-88
2024/01/23 02:47:12;;;;;;;0.40;0.40;;;;;;;;;;5100607;27;20496;-88
2024/01/23 02:49:38;;;;;;;0.50;0.50;;;;;;;;;;5117640;27;20043;-88
2024/01/23 02:52:04;;;;;;;0.50;0.50;;;;;;;;;;5100489;27;20070;-88
2024/01/23 02:54:48;;;;;;;0.40;0.40;;;;;;;;;;5100966;27;20074;-88
2024/01/23 02:57:14;;;;;;;0.40;0.40;;;;;;;;;;5100872;27;20487;-88
2024/01/23 02:59:40;;;;;;;0.40;0.40;;;;;;;;;;5100661;27;20529;-88
2024/01/23 03:02:06;;;;;;;0.40;0.40;;;;;;;;;;5100263;27;20043;-87
2024/01/23 03:04:32;;;;;;;0.50;0.50;;;;;;;;;;5100545;27;20415;-88
2024/01/23 03:06:58;;;;;;;0.50;0.50;;;;;;;;;;5100458;27;20056;-88
2024/01/23 03:09:24;;;;;;;0.50;0.50;;;;;;;;;;5117424;27;20042;-88
2024/01/23 03:11:50;;;;;;;0.43;0.43;;;;;;;;;;5100249;27;20039;-87
2024/01/23 03:14:16;;;;;;;0.40;0.40;;;;;;;;;;5116958;27;20039;-88
2024/01/23 03:16:42;;;;;;;0.50;0.50;;;;;;;;;;5100213;27;20518;-88
2024/01/23 03:19:08;;;;;;;0.47;0.47;;;;;;;;;;5099855;27;20043;-88
2024/01/23 03:21:34;;;;;;;0.50;0.50;;;;;;;;;;5100252;27;20035;-87
2024/01/23 03:24:00;;;;;;;0.40;0.40;;;;;;;;;;5099937;27;20035;-88
2024/01/23 03:26:26;;;;;;;0.50;0.50;;;;;;;;;;5100198;27;20031;-87
2024/01/23 03:28:52;;;;;;;0.50;0.50;;;;;;;;;;5100346;27;20035;-88
2024/01/23 03:31:18;;;;;;;0.50;0.50;;;;;;;;;;5100101;27;20179;-88
2024/01/23 03:33:46;;;;;;;0.50;0.50;;;;;;;;;;5099676;27;20126;-87
2024/01/23 03:36:12;;;;;;;0.50;0.50;;;;;;;;;;5117105;27;20055;-88
2024/01/23 03:38:38;;;;;;;0.60;0.60;;;;;;;;;;5117070;27;20092;-88
2024/01/23 03:41:04;;;;;;;0.50;0.50;;;;;;;;;;5099921;27;20441;-88
2024/01/23 03:43:30;;;;;;;0.40;0.40;;;;;;;;;;5099861;27;20039;-88
2024/01/23 03:45:56;;;;;;;0.50;0.50;;;;;;;;;;5099706;27;20035;-88
2024/01/23 03:48:22;;;;;;;0.40;0.40;;;;;;;;;;5099977;27;20369;-88
2024/01/23 03:50:48;;;;;;;0.50;0.50;;;;;;;;;;5116503;27;20449;-88
2024/01/23 03:53:14;;;;;;;0.40;0.40;;;;;;;;;;5099814;27;20039;-88
2024/01/23 03:55:40;;;;;;;0.47;0.47;;;;;;;;;;5099830;27;20042;-88
2024/01/23 03:58:06;;;;;;;0.50;0.50;;;;;;;;;;5099902;27;20047;-88
2024/01/23 04:00:32;;;;;;;0.50;0.50;;;;;;;;;;5099323;27;20039;-88
2024/01/23 04:02:59;;;;;;;0.50;0.50;;;;;;;;;;5099441;27;20521;-88
2024/01/23 04:05:25;;;;;;;0.45;0.45;;;;;;;;;;5099167;27;20139;-87
2024/01/23 04:07:51;;;;;;;0.50;0.50;;;;;;;;;;5099339;27;20031;-88
2024/01/23 04:10:17;;;;;;;0.45;0.45;;;;;;;;;;5099330;27;20385;-87
2024/01/23 04:12:43;;;;;;;0.40;0.40;;;;;;;;;;5099191;27;20034;-88
2024/01/23 04:15:09;;;;;;;0.50;0.50;;;;;;;;;;5099015;27;20039;-87
2024/01/23 04:17:35;;;;;;;0.40;0.40;;;;;;;;;;5099309;27;20042;-88
2024/01/23 04:20:01;;;;;;;0.50;0.50;;;;;;;;;;5099185;27;20092;-88
2024/01/23 04:22:27;;;;;;;0.50;0.50;;;;;;;;;;5098654;27;20039;-88
2024/01/23 04:24:54;;;;;;;0.40;0.40;;;;;;;;;;5116103;27;20035;-88
2024/01/23 04:27:20;;;;;;;0.50;0.50;;;;;;;;;;5099107;27;20035;-88
2024/01/23 04:29:46;;;;;;;0.40;0.40;;;;;;;;;;5099052;28;20043;-88
2024/01/23 04:32:12;;;;;;;0.40;0.40;;;;;;;;;;5099186;27;20047;-88
2024/01/23 04:34:38;;;;;;;0.40;0.40;;;;;;;;;;5116171;27;20039;-88
2024/01/23 04:37:04;;;;;;;0.47;0.47;;;;;;;;;;5115972;28;20563;-88
2024/01/23 04:39:30;;;;;;;0.50;0.50;;;;;;;;;;5099111;28;20066;-87
2024/01/23 04:41:56;;;;;;;0.50;0.50;;;;;;;;;;5098832;28;20125;-88
2024/01/23 04:44:22;;;;;;;0.50;0.50;;;;;;;;;;5098834;28;20036;-87
2024/01/23 04:46:48;;;;;;;0.45;0.45;;;;;;;;;;5099260;28;20127;-88
2024/01/23 04:49:14;;;;;;;0.47;0.47;;;;;;;;;;5099078;28;20039;-88
2024/01/23 04:51:40;;;;;;;0.40;0.40;;;;;;;;;;5098763;28;20041;-88
2024/01/23 04:54:06;;;;;;;0.45;0.45;;;;;;;;;;5098570;28;20602;-88
2024/01/23 04:56:32;;;;;;;0.40;0.40;;;;;;;;;;5098743;28;20066;-88
2024/01/23 04:58:58;;;;;;;0.50;0.50;;;;;;;;;;5099155;28;20431;-88
2024/01/23 05:01:24;;;;;;;0.50;0.50;;;;;;;;;;5098675;28;20084;-88
2024/01/23 05:03:50;;;;;;;0.40;0.40;;;;;;;;;;5098399;28;20042;-88
2024/01/23 05:06:16;;;;;;;0.40;0.40;;;;;;;;;;5115839;28;20031;-87
2024/01/23 05:08:42;;;;;;;0.50;0.50;;;;;;;;;;5098695;28;20031;-88
2024/01/23 05:11:08;;;;;;;0.40;0.40;;;;;;;;;;5115441;28;20043;-88
2024/01/23 05:13:34;;;;;;;0.40;0.40;;;;;;;;;;5115194;28;20152;-88
2024/01/23 05:16:01;;;;;;;0.50;0.50;;;;;;;;;;5098790;28;20043;-87
2024/01/23 05:18:27;;;;;;;0.43;0.43;;;;;;;;;;5098397;28;20039;-88
2024/01/23 05:20:53;;;;;;;0.50;0.50;;;;;;;;;;5098498;28;20039;-88
2024/01/23 05:23:20;;;;;;;0.50;0.50;;;;;;;;;;5098593;28;20035;-88
2024/01/23 05:25:46;;;;;;;0.50;0.50;;;;;;;;;;5115521;28;20035;-88
2024/01/23 05:28:12;;;;;;;0.47;0.47;;;;;;;;;;5098733;28;20487;-88
2024/01/23 05:30:38;;;;;;;0.50;0.50;;;;;;;;;;5098807;28;20053;-88
2024/01/23 05:33:04;;;;;;;0.50;0.50;;;;;;;;;;5099080;27;20043;-88
2024/01/23 05:35:30;;;;;;;0.50;0.50;;;;;;;;;;5102437;27;20043;-87
2024/01/23 05:37:56;;;;;;;0.45;0.45;;;;;;;;;;5102139;27;20046;-88
2024/01/23 05:40:23;;;;;;;0.45;0.45;;;;;;;;;;5119009;27;20047;-88
2024/01/23 05:42:49;;;;;;;0.40;0.40;;;;;;;;;;5102223;27;20038;-88
2024/01/23 05:45:15;;;;;;;0.50;0.50;;;;;;;;;;5102374;27;20042;-88
2024/01/23 05:47:40;;;;;;;0.38;0.38;;;;;;;;;;5102053;27;20080;-87
2024/01/23 05:50:07;;;;;;;0.40;0.40;;;;;;;;;;5101997;27;20054;-87
2024/01/23 05:52:33;;;;;;;0.55;0.55;;;;;;;;;;5101730;27;20050;-87
2024/01/23 05:54:59;;;;;;;0.50;0.50;;;;;;;;;;5102023;27;20403;-88
2024/01/23 05:57:26;;;;;;;0.40;0.40;;;;;;;;;;5102253;27;20099;-87
2024/01/23 05:59:52;;;;;;;0.40;0.40;;;;;;;;;;5101881;27;20082;-87
2024/01/23 06:02:18;;;;;;;0.50;0.50;;;;;;;;;;5101494;27;20046;-88
2024/01/23 06:04:44;;;;;;;0.50;0.50;;;;;;;;;;5101981;27;20391;-88
2024/01/23 06:07:10;;;;;;;0.50;0.50;;;;;;;;;;5118606;27;20035;-88
2024/01/23 06:09:36;;;;;;;0.40;0.40;;;;;;;;;;5101546;27;20046;-88
2024/01/23 06:12:02;;;;;;;0.40;0.40;;;;;;;;;;5101577;27;20042;-87
2024/01/23 06:14:28;;;;;;;0.40;0.40;;;;;;;;;;5118665;27;20440;-88
2024/01/23 06:16:54;;;;;;;0.40;0.40;;;;;;;;;;5101335;27;20050;-88
2024/01/23 06:19:22;;;;;;;0.40;0.40;;;;;;;;;;5101218;27;20495;-88
2024/01/23 06:21:48;;;;;;;0.40;0.40;;;;;;;;;;5101346;27;20445;-87
2024/01/23 06:24:14;;;;;;;0.43;0.43;;;;;;;;;;5100974;27;20046;-87
2024/01/23 06:26:40;;;;;;;0.50;0.50;;;;;;;;;;5101030;27;20037;-87
2024/01/23 06:29:06;;;;;;;0.40;0.40;;;;;;;;;;5101223;27;20035;-88
2024/01/23 06:31:32;;;;;;;0.50;0.50;;;;;;;;;;5101270;27;20046;-87
2024/01/23 06:33:58;;;;;;;0.40;0.40;;;;;;;;;;5101213;27;20045;-87
2024/01/23 06:36:24;;;;;;;0.40;0.40;;;;;;;;;;5101173;27;20084;-87
2024/01/23 06:38:49;;;;;;;0.40;0.40;;;;;;;;;;5100978;27;20507;-88
2024/01/23 06:41:15;;;;;;;0.40;0.40;;;;;;;;;;5118110;27;20484;-88
2024/01/23 06:43:41;;;;;;;0.40;0.40;;;;;;;;;;5117762;27;20088;-88
2024/01/23 06:46:07;;;;;;;0.50;0.50;;;;;;;;;;5100505;27;20598;-87
2024/01/23 06:48:33;;;;;;;0.32;0.32;;;;;;;;;;5100872;27;20058;-88
2024/01/23 06:50:59;;;;;;;0.40;0.40;;;;;;;;;;5100858;27;20042;-88
2024/01/23 06:53:25;;;;;;;0.43;0.43;;;;;;;;;;5100434;27;20058;-88
2024/01/23 06:55:51;;;;;;;0.45;0.45;;;;;;;;;;5080618;28;20048;-88
2024/01/23 06:58:17;;;;;;;0.40;0.40;;;;;;;;;;5093821;27;20035;-88
2024/01/23 07:00:43;;;;;;;0.40;0.40;;;;;;;;;;5100491;27;20038;-88
2024/01/23 07:03:09;;;;;;;0.47;0.47;;;;;;;;;;5100530;27;20035;-88
2024/01/23 07:05:35;;;;;;;0.40;0.40;;;;;;;;;;5100695;27;20035;-88
2024/01/23 07:08:03;;;;;;;0.40;0.40;;;;;;;;;;5100530;27;20130;-87
2024/01/23 07:10:29;;;;;;;0.50;0.50;;;;;;;;;;5117337;27;20054;-88
2024/01/23 07:12:56;;;;;;;0.40;0.40;;;;;;;;;;5100249;27;20039;-89
2024/01/23 07:15:22;;;;;;;0.40;0.40;;;;;;;;;;5100451;27;20419;-88
2024/01/23 07:17:48;;;;;;;0.40;0.40;;;;;;;;;;5100453;27;20064;-88
2024/01/23 07:20:14;;;;;;;0.40;0.40;;;;;;;;;;5100538;27;20035;-88
2024/01/23 07:22:40;;;;;;;0.40;0.40;;;;;;;;;;5100433;27;20047;-88
2024/01/23 07:25:06;;;;;;;0.40;0.40;;;;;;;;;;5100448;27;20039;-88
2024/01/23 07:27:32;;;;;;;0.50;0.50;;;;;;;;;;5100354;27;20050;-89
2024/01/23 07:29:58;;;;;;;0.50;0.50;;;;;;;;;;5100488;27;20521;-88
2024/01/23 07:32:24;;;;;;;0.50;0.50;;;;;;;;;;5100243;27;20042;-88
2024/01/23 07:34:50;;;;;;;0.45;0.45;;;;;;;;;;5099762;27;20039;-88
2024/01/23 07:37:16;;;;;;;0.40;0.40;;;;;;;;;;5116630;27;20074;-88
2024/01/23 07:39:42;;;;;;;0.50;0.50;;;;;;;;;;5115673;27;20047;-88
2024/01/23 07:42:08;;;;;;;0.50;0.50;;;;;;;;;;5099200;27;20051;-88
2024/01/23 07:44:38;;;;;;;0.50;0.50;;;;;;;;;;5099011;27;20036;-88
2024/01/23 07:47:04;;;;;;;0.40;0.40;;;;;;;;;;5098307;27;20387;-88
2024/01/23 07:49:30;;;;;;;0.50;0.50;;;;;;;;;;5097774;27;20039;-88
2024/01/23 07:51:56;;;;;;;0.40;0.40;;;;;;;;;;5098301;27;20056;-88
2024/01/23 07:54:22;;;;;;;0.40;0.40;;;;;;;;;;5098700;27;20547;-88
2024/01/23 07:56:50;;;;;;;0.43;0.43;;;;;;;;;;5098058;28;20046;-88
2024/01/23 07:59:17;;;;;;;0.50;0.50;;;;;;;;;;5098943;27;20032;-88
2024/01/23 08:01:43;;;;;;;0.45;0.45;;;;;;;;;;5098504;27;20054;-88
2024/01/23 08:04:10;;;;;;;1.15;1.10;;;;;;;;;;5114602;27;20166;-88
2024/01/23 08:06:36;;;;;;;0.50;0.50;;;;;;;;;;5094989;28;20039;-88
2024/01/23 08:09:04;;;;;;;0.50;0.50;;;;;;;;;;5098580;27;20035;-88
2024/01/23 08:11:31;;;;;;;0.40;0.40;;;;;;;;;;5098343;27;20047;-87
2024/01/23 08:13:57;;;;;;;0.40;0.40;;;;;;;;;;5098868;27;20043;-87
2024/01/23 08:16:25;;;;;;;0.45;0.45;;;;;;;;;;5098261;27;20494;-88
2024/01/23 08:18:51;;;;;;;0.50;0.50;;;;;;;;;;5098821;27;20103;-90
2024/01/23 08:21:17;;;;;;;0.50;0.50;;;;;;;;;;5096579;27;20039;-91
2024/01/23 08:23:43;;;;;;;0.45;0.45;;;;;;;;;;5097681;27;20046;-89
2024/01/23 08:26:10;;;;;;;0.40;0.40;;;;;;;;;;5097996;27;20031;-89
2024/01/23 08:28:36;;;;;;;0.50;0.50;;;;;;;;;;5097603;27;20440;-88
2024/01/23 08:31:05;;;;;;;0.50;0.50;;;;;;;;;;5096512;27;20078;-88
2024/01/23 08:33:31;;;;;;;0.38;0.38;;;;;;;;;;5100592;27;20043;-88
2024/01/23 08:35:57;;;;;;;0.40;0.40;;;;;;;;;;5120779;27;20066;-88
2024/01/23 08:38:23;;;;;;;0.40;0.40;;;;;;;;;;5110833;28;20492;-88
2024/01/23 08:40:49;;;;;;;0.40;0.40;;;;;;;;;;5103098;28;20050;-88
2024/01/23 08:43:15;;;;;;;0.40;0.40;;;;;;;;;;5104043;28;20031;-89
2024/01/23 08:45:41;;;;;;;0.40;0.40;;;;;;;;;;5077740;28;20038;-88
2024/01/23 08:48:08;;;;;;;0.40;0.40;;;;;;;;;;5114414;28;20039;-89
2024/01/23 08:50:34;;;;;;;0.50;0.50;;;;;;;;;;5087855;28;20121;-88
2024/01/23 08:53:00;;;;;;;0.40;0.40;;;;;;;;;;5087185;28;20058;-88
2024/01/23 08:55:34;;;;;;;0.40;0.40;;;;;;;;;;5097421;28;20491;-90
2024/01/23 08:58:00;;;;;;;0.50;0.50;;;;;;;;;;5097412;28;20046;-89
2024/01/23 09:00:26;;;;;;;0.40;0.40;;;;;;;;;;5096957;28;20035;-89
2024/01/23 09:02:52;;;;;;;0.43;0.43;;;;;;;;;;5097616;28;20039;-87
2024/01/23 09:05:18;;;;;;;0.40;0.40;;;;;;;;;;5120667;28;20086;-88
2024/01/23 09:07:50;;;;;;;0.50;0.50;;;;;;;;;;5102285;28;20047;-88
2024/01/23 09:10:16;;;;;;;0.40;0.40;;;;;;;;;;5101645;27;20399;-87
2024/01/23 09:12:42;;;;;;;0.50;0.50;;;;;;;;;;5103029;27;20039;-89
2024/01/23 09:15:09;;;;;;;0.40;0.40;;;;;;;;;;5101660;27;20457;-89
2024/01/23 09:17:36;;;;;;;0.50;0.50;;;;;;;;;;5101214;27;20069;-89
2024/01/23 09:20:04;;;;;;;0.40;0.40;;;;;;;;;;5101245;27;20035;-88
2024/01/23 09:22:30;;;;;;;0.40;0.40;;;;;;;;;;5097667;28;20479;-90
2024/01/23 09:24:59;;;;;;;0.50;0.50;;;;;;;;;;5082287;28;20063;-89
2024/01/23 09:27:25;;;;;;;0.40;0.40;;;;;;;;;;5081903;28;20035;-90
2024/01/23 09:29:52;;;;;;;0.40;0.40;;;;;;;;;;5109507;27;20045;-89
2024/01/23 09:32:18;;;;;;;0.40;0.40;;;;;;;;;;5101544;27;20190;-89
2024/01/23 09:34:44;;;;;;;0.40;0.40;;;;;;;;;;5102300;27;20047;-90
2024/01/23 09:37:11;;;;;;;0.40;0.40;;;;;;;;;;5119145;27;20075;-89
2024/01/23 09:39:36;;;;;;;0.40;0.40;;;;;;;;;;5102841;27;20100;-89
2024/01/23 09:42:03;;;;;;;0.40;0.40;;;;;;;;;;5102137;27;20035;-89
2024/01/23 09:44:29;;;;;;;1.73;1.50;;;;;;;;;;5104142;27;20045;-89
2024/01/23 09:46:55;;;;;;;0.40;0.40;;;;;;;;;;5124669;27;20039;-89
2024/01/23 09:49:21;;;;;;;0.50;0.50;;;;;;;;;;5107554;27;20058;-89
2024/01/23 09:51:48;;;;;;;0.50;0.50;;;;;;;;;;5102713;27;20065;-89
2024/01/23 09:54:14;;;;;;;0.50;0.50;;;;;;;;;;5101935;27;20035;-90
2024/01/23 09:56:40;;;;;;;0.40;0.40;;;;;;;;;;5111384;27;20035;-90
2024/01/23 09:59:08;;;;;;;0.40;0.40;;;;;;;;;;5098334;28;20028;-90
2024/01/23 10:01:34;;;;;;;0.40;0.40;;;;;;;;;;5102741;27;20047;-89
2024/01/23 10:04:04;;;;;;;0.40;0.40;;;;;;;;;;5103861;27;20524;-89
2024/01/23 10:06:30;;;;;;;0.30;0.30;;;;;;;;;;5103080;27;20042;-89
2024/01/23 10:08:56;;;;;;;0.40;0.40;;;;;;;;;;5113076;27;20491;-90
2024/01/23 10:11:21;;;;;;;0.50;0.50;;;;;;;;;;5111664;27;20047;-89
2024/01/23 10:13:48;;;;;;;0.40;0.40;;;;;;;;;;5115010;27;20070;-90
2024/01/23 10:16:16;;;;;;;0.43;0.43;;;;;;;;;;5099608;27;20043;-89
2024/01/23 10:18:42;;;;;;;0.50;0.50;;;;;;;;;;5105521;27;20035;-89
2024/01/23 10:21:08;;;;;;;0.40;0.40;;;;;;;;;;5102875;27;20050;-90
2024/01/23 10:23:34;;;;;;;0.50;0.50;;;;;;;;;;5098859;27;20035;-89
2024/01/23 10:26:00;;;;;;;0.50;0.50;;;;;;;;;;5121947;27;20062;-90
2024/01/23 10:28:26;;;;;;;0.50;0.50;;;;;;;;;;5101437;27;20539;-90
2024/01/23 10:31:17;;;;;;;0.50;0.50;;;;;;;;;;5124257;27;20091;-90
2024/01/23 10:33:43;;;;;;;0.45;0.45;;;;;;;;;;5120312;27;20035;-89
2024/01/23 10:36:09;;;;;;;0.50;0.50;;;;;;;;;;5102761;27;20068;-90
2024/01/23 10:38:36;;;;;;;0.30;0.30;;;;;;;;;;5111609;27;20492;-91
2024/01/23 10:41:05;;;;;;;0.40;0.40;;;;;;;;;;5105477;27;20039;-89
2024/01/23 10:43:31;;;;;;;0.40;0.40;;;;;;;;;;5099116;27;20077;-89
2024/01/23 10:45:58;;;;;;;0.40;0.40;;;;;;;;;;5100422;27;20032;-90
2024/01/23 10:48:24;;;;;;;0.40;0.40;;;;;;;;;;5100955;27;20395;-90
2024/01/23 10:50:52;;;;;;;0.30;0.30;;;;;;;;;;5100682;27;20042;-89
2024/01/23 10:53:19;;;;;;;0.40;0.40;;;;;;;;;;5100098;27;20047;-90
2024/01/23 10:55:46;;;;;;;0.40;0.40;;;;;;;;;;5100579;27;20049;-90
2024/01/23 10:58:19;;;;;;;0.40;0.40;;;;;;;;;;5100671;27;20039;-90
2024/01/23 11:00:46;;;;;;;0.40;0.40;;;;;;;;;;5100513;27;20115;-90
2024/01/23 11:03:13;;;;;;;0.40;0.40;;;;;;;;;;5099968;27;20043;-90
2024/01/23 11:05:47;;;;;;;0.30;0.30;;;;;;;;;;5099799;27;20099;-90
2024/01/23 11:08:26;;;;;;;0.40;0.40;;;;;;;;;;5100431;27;20074;-90
2024/01/23 11:10:57;;;;;;;0.75;0.73;;;;;;;;;;5100531;27;20043;-90
2024/01/23 11:13:26;;;;;;;0.40;0.40;;;;;;;;;;5100023;27;20138;-90
2024/01/23 11:15:52;;;;;;;0.50;0.50;;;;;;;;;;5100050;27;20031;-90
2024/01/23 11:18:22;;;;;;;0.40;0.40;;;;;;;;;;5100301;27;20046;-90
2024/01/23 11:21:04;;;;;;;2.15;1.58;;;;;;;;;;5100035;27;20046;-90
2024/01/23 11:23:30;;;;;;;0.40;0.40;;;;;;;;;;5100141;27;20130;-90
2024/01/23 11:26:14;;;;;;;0.50;0.50;;;;;;;;;;5100112;27;20117;-90
2024/01/23 11:28:42;;;;;;;0.40;0.40;;;;;;;;;;5099879;27;20543;-90
2024/01/23 11:31:09;;;;;;;0.40;0.40;;;;;;;;;;5099939;27;20027;-90
2024/01/23 11:33:35;;;;;;;0.40;0.40;;;;;;;;;;5099789;27;20034;-90
2024/01/23 11:36:08;;;;;;;0.40;0.40;;;;;;;;;;5100047;27;20031;-90
2024/01/23 11:38:44;;;;;;;0.40;0.40;;;;;;;;;;5099962;27;20043;-90
2024/01/23 11:41:15;;;;;;;0.40;0.40;;;;;;;;;;5116608;27;20040;-89
2024/01/23 11:43:41;;;;;;;0.40;0.40;;;;;;;;;;5099016;27;20043;-89
2024/01/23 11:46:12;;;;;;;0.40;0.40;;;;;;;;;;5099477;27;20061;-90
2024/01/23 11:48:39;;;;;;;0.40;0.40;;;;;;;;;;5099763;27;20134;-90
2024/01/23 11:51:05;;;;;;;0.40;0.40;;;;;;;;;;5099494;27;20039;-90
2024/01/23 11:53:35;;;;;;;0.40;0.40;;;;;;;;;;5099644;27;20054;-90
2024/01/23 11:56:02;;;;;;;0.40;0.40;;;;;;;;;;5116998;27;20051;-90
2024/01/23 11:58:28;;;;;;;0.40;0.40;;;;;;;;;;5099293;27;20467;-90
2024/01/23 12:00:57;;;;;;;0.40;0.40;;;;;;;;;;5099368;27;20407;-90
2024/01/23 12:03:23;;;;;;;0.40;0.40;;;;;;;;;;5099409;27;20043;-90
2024/01/23 12:05:51;;;;;;;0.40;0.40;;;;;;;;;;5099156;27;20555;-90
2024/01/23 12:08:25;;;;;;;0.40;0.40;;;;;;;;;;5098052;27;20049;-90
2024/01/23 12:10:51;;;;;;;0.35;0.35;;;;;;;;;;5078556;28;20040;-90
2024/01/23 12:13:22;;;;;;;0.40;0.40;;;;;;;;;;5097341;27;20083;-91
2024/01/23 12:15:48;;;;;;;0.40;0.40;;;;;;;;;;5098799;27;20386;-90
2024/01/23 12:18:14;;;;;;;0.40;0.40;;;;;;;;;;5102040;27;20053;-92
2024/01/23 12:20:48;;;;;;;0.40;0.40;;;;;;;;;;5121571;27;20050;-94
2024/01/23 12:23:14;;;;;;;0.32;0.32;;;;;;;;;;5100256;27;20046;-92
2024/01/23 12:25:40;;;;;;;0.40;0.40;;;;;;;;;;5116036;27;20031;-91
2024/01/23 12:28:07;;;;;;;0.40;0.40;;;;;;;;;;5088581;28;20032;-92
2024/01/23 12:30:34;;;;;;;0.40;0.40;;;;;;;;;;5078143;28;20067;-93
2024/01/23 12:33:00;;;;;;;0.40;0.40;;;;;;;;;;5077486;28;20036;-90
2024/01/23 12:35:26;;;;;;;0.40;0.40;;;;;;;;;;5094600;27;20622;-91
2024/01/23 12:37:52;;;;;;;0.40;0.40;;;;;;;;;;5115504;27;20113;-91
2024/01/23 12:40:19;;;;;;;0.40;0.40;;;;;;;;;;5098761;28;20067;-91
2024/01/23 12:42:46;;;;;;;0.40;0.40;;;;;;;;;;5097027;28;20078;-93
2024/01/23 12:45:13;;;;;;;0.40;0.40;;;;;;;;;;5097595;28;20047;-90
2024/01/23 12:47:41;;;;;;;0.40;0.40;;;;;;;;;;5097987;28;20057;-90
2024/01/23 12:50:14;;;;;;;0.40;0.40;;;;;;;;;;5097892;28;20031;-90
2024/01/23 12:52:40;;;;;;;0.40;0.40;;;;;;;;;;5098061;28;20055;-92
2024/01/23 12:55:06;;;;;;;0.40;0.40;;;;;;;;;;5114283;27;20457;-90
2024/01/23 12:57:32;;;;;;;0.40;0.40;;;;;;;;;;5099020;28;20106;-87
2024/01/23 12:59:58;;;;;;;0.40;0.40;;;;;;;;;;5114033;28;20035;-86
2024/01/23 13:02:25;;;;;;;0.30;0.30;;;;;;;;;;5112860;28;20031;-87
2024/01/23 13:04:51;;;;;;;0.40;0.40;;;;;;;;;;5096831;28;20039;-87
2024/01/23 13:07:17;;;;;;;0.40;0.40;;;;;;;;;;5097059;28;20046;-87
2024/01/23 13:09:50;;;;;;;0.40;0.40;;;;;;;;;;5096479;28;20042;-87
2024/01/23 13:12:16;;;;;;;0.40;0.40;;;;;;;;;;5096274;28;20151;-87
2024/01/23 13:14:42;;;;;;;0.50;0.50;;;;;;;;;;5096915;28;20035;-88
2024/01/23 13:17:08;;;;;;;0.40;0.40;;;;;;;;;;5096692;28;20067;-88
2024/01/23 13:19:34;;;;;;;0.40;0.40;;;;;;;;;;5113589;28;20046;-87
2024/01/23 13:22:00;;;;;;;0.40;0.40;;;;;;;;;;5096118;28;20039;-87
2024/01/23 13:24:26;;;;;;;0.38;0.38;;;;;;;;;;5096621;28;20484;-87
2024/01/23 13:26:52;;;;;;;0.40;0.40;;;;;;;;;;5096893;28;20031;-87
2024/01/23 13:29:19;;;;;;;0.40;0.40;;;;;;;;;;5096661;28;20248;-89
2024/01/23 13:31:45;;;;;;;0.40;0.40;;;;;;;;;;5097689;28;20039;-89
2024/01/23 13:34:12;;;;;;;0.40;0.40;;;;;;;;;;5113364;28;20387;-88
2024/01/23 13:36:39;;;;;;;0.40;0.40;;;;;;;;;;5096813;28;20156;-88
2024/01/23 13:39:13;;;;;;;0.40;0.40;;;;;;;;;;5114469;28;20491;-88
2024/01/23 13:41:40;;;;;;;0.35;0.35;;;;;;;;;;5096833;28;20042;-88
2024/01/23 13:44:07;;;;;;;0.40;0.40;;;;;;;;;;5096954;28;20101;-84
2024/01/23 13:46:33;;;;;;;0.40;0.40;;;;;;;;;;5113285;28;20042;-84
2024/01/23 13:48:59;;;;;;;0.40;0.40;;;;;;;;;;5100370;27;20173;-84
2024/01/23 13:51:25;;;;;;;0.60;0.60;;;;;;;;;;5133696;27;20514;-84
2024/01/23 13:53:51;;;;;;;0.40;0.40;;;;;;;;;;5105846;27;20042;-85
2024/01/23 13:56:17;;;;;;;0.30;0.30;;;;;;;;;;5136095;27;20046;-84
2024/01/23 13:58:44;;;;;;;0.40;0.40;;;;;;;;;;5120367;27;20038;-84
2024/01/23 14:01:10;;;;;;;0.40;0.40;;;;;;;;;;5100175;27;20483;-84
2024/01/23 14:03:36;;;;;;;0.50;0.50;;;;;;;;;;5099330;27;20399;-84
2024/01/23 14:06:02;;;;;;;0.40;0.40;;;;;;;;;;5099506;27;20111;-84
2024/01/23 14:08:29;;;;;;;0.40;0.40;;;;;;;;;;5099351;27;20039;-86
2024/01/23 14:10:59;;;;;;;0.32;0.32;;;;;;;;;;5099817;27;20045;-86
2024/01/23 14:13:25;;;;;;;0.40;0.40;;;;;;;;;;5099329;27;20039;-85
2024/01/23 14:15:52;;;;;;;0.30;0.30;;;;;;;;;;5104784;27;20087;-88
2024/01/23 14:18:18;;;;;;;0.40;0.40;;;;;;;;;;5100067;27;20039;-88
2024/01/23 14:20:44;;;;;;;0.40;0.40;;;;;;;;;;5099887;27;20043;-88
2024/01/23 14:23:10;;;;;;;0.40;0.40;;;;;;;;;;5098938;27;20035;-88
2024/01/23 14:25:36;;;;;;;0.40;0.40;;;;;;;;;;5099993;27;20058;-88
2024/01/23 14:28:03;;;;;;;0.40;0.40;;;;;;;;;;5099568;27;20035;-88
2024/01/23 14:30:29;;;;;;;0.30;0.30;;;;;;;;;;5101586;27;20502;-88
2024/01/23 14:32:55;;;;;;;0.40;0.40;;;;;;;;;;5124402;27;20042;-88
2024/01/23 14:35:37;;;;;;;0.40;0.40;;;;;;;;;;5099209;27;20039;-88
2024/01/23 14:38:04;;;;;;;0.30;0.30;;;;;;;;;;5099803;27;20043;-88
2024/01/23 14:43:21;;;;;;;0.40;0.40;;;;;;;;;;5116018;27;20121;-88
2024/01/23 14:45:48;;;;;;;0.40;0.40;;;;;;;;;;5099911;27;20520;-86